Podatki so pridobljeni v realnem času in so neuradni. Podatki so informativne narave. Opozarjamo, da ne prevzamemo odgovornosti za morebitno nastalo škodo, ki bi nastala zaradi odločitve, sprejete na osnovi podatkov s portala vremenske postaje Rače.


VREMENSKA POSTAJA

Brezula - RAČE

Domov - PORTAL - Domov

Klikni na napis za vrnitev na portal.



Obiščite še:

Template documentation
and downloads

And another site



METAR v bližini

   
LJMB - Maribor
Posodobljeno: 25-04-2018 23:30
Jasno  
Jasno  
   Veter: JJZ 14.8 km/h
Veter: JJZ 14.8 km/h
Temperatura: 18°C
Točka rosišča: 9°C
Vlažnost: 56%
Zračni tlak: 1011 hPa
Oblaki: Jasno
Vidljivost: More than 10 km
Podrobnosti o oblakih: Jasno
LJMB 252130Z AUTO 21008KT 9999 NCD 18/09 Q1011
LJLJ - Ljubljana
Posodobljeno: 25-04-2018 23:30
Jasno  
Jasno  
   Veter: VSV 7.4 km/h
Veter: VSV 7.4 km/h
Temperatura: 12°C
Točka rosišča: 10°C
Vlažnost: 88%
Zračni tlak: 1014 hPa
Vidljivost: More than 10 km
Podrobnosti o oblakih: Jasno
LJLJ 252130Z 06004KT CAVOK 12/10 Q1014 NOSIG
LOWG - Graz
Posodobljeno: 25-04-2018 23:20
Jasno  
Jasno  
   Veter: JJV 5.6 km/h
Veter: JJV 5.6 km/h
Temperatura: 16°C
Točka rosišča: 11°C
Vlažnost: 72%
Zračni tlak: 1011 hPa
Vidljivost: More than 10 km
Podrobnosti o oblakih: Jasno
LOWG 252120Z 16003KT 090V210 CAVOK 16/11 Q1011 NOSIG
LDZA - Zagreb
Posodobljeno: 25-04-2018 23:30
Jasno  
Jasno  
   Veter: Različen 3.7 km/h
Veter: Različen 3.7 km/h
Temperatura: 15°C
Točka rosišča: 8°C
Vlažnost: 63%
Zračni tlak: 1012 hPa
Vidljivost: More than 10 km
Podrobnosti o oblakih: Jasno
LDZA 252130Z VRB02KT CAVOK 15/08 Q1012 NOSIG
  

Skripto razvil  Saratoga-weather.org Prilagoditev za tampleto od  Weerstation Leuven

Vremenski podatki so objavljeni na:

UK Metoffice

European Weather Network

WeatherCloud

Weather Underground

AWEKAS

Citizen Weather Observer Program (CWOP)

HAMweather, WeatherForYou, PWS Weather

Oprema, ki se uporablja:

Vremenska postaja
Oregon Scientific WMR200

Program za vreme
Cumulus

Server za vreme
Q-Box 270N

Ponudnik
IKONIO s.p.

Oregon Scientific WMR200

Cumulus

Q-Box 270N

IKONIO s.p.



VREMENSKA POSTAJA

Brezula - RAČE

Domov - PORTAL - Domov

Klikni na napis za vrnitev na portal.